Time;durP1;ratioP1;P1;durP2;ratioP2;P2;SDS_P1;SDS_P2;PMS_P1;PMS_P2;Temp;Humidity;BMP_temperature;BMP_pressure;BME280_temperature;BME280_humidity;BME280_pressure;Samples;Min_cycle;Max_cycle;Signal;HPM_P1;HPM_P2
2022/03/24 00:02:11;;;;;;;5.78;4.30;;;24.10;31.10;;;;;;5074311;28;20380;-75
2022/03/24 00:04:38;;;;;;;7.00;4.28;;;24.20;31.80;;;;;;5073417;28;20051;-67
2022/03/24 00:07:06;;;;;;;6.85;3.65;;;24.30;31.10;;;;;;5071849;28;20146;-59
2022/03/24 00:09:34;;;;;;;7.68;3.60;;;24.50;30.90;;;;;;5076662;28;20467;-63
2022/03/24 00:12:01;;;;;;;6.30;3.65;;;24.60;30.70;;;;;;5081656;28;20126;-65
2022/03/24 00:14:30;;;;;;;5.50;4.38;;;24.90;30.60;;;;;;5078122;28;20032;-70
2022/03/24 00:16:57;;;;;;;6.38;4.50;;;24.90;30.40;;;;;;5079061;28;20127;-67
2022/03/24 00:19:26;;;;;;;7.32;4.32;;;25.10;30.30;;;;;;5077373;28;20051;-67
2022/03/24 00:21:53;;;;;;;4.13;3.47;;;25.30;30.20;;;;;;5078078;28;20086;-67
2022/03/24 00:24:20;;;;;;;6.03;3.45;;;25.30;30.00;;;;;;5078315;28;20044;-66
2022/03/24 00:26:47;;;;;;;4.28;3.10;;;25.40;29.80;;;;;;5075837;28;20055;-68
2022/03/24 00:29:15;;;;;;;3.78;3.47;;;25.60;29.80;;;;;;5078814;28;20044;-68
2022/03/24 00:31:43;;;;;;;6.50;4.43;;;25.70;29.70;;;;;;5077776;28;20156;-67
2022/03/24 00:34:11;;;;;;;4.68;3.58;;;25.70;29.60;;;;;;5077363;28;20074;-68
2022/03/24 00:36:39;;;;;;;9.07;3.67;;;25.80;29.60;;;;;;5077556;28;20051;-67
2022/03/24 00:39:06;;;;;;;4.32;3.65;;;25.90;29.60;;;;;;5079628;28;20070;-68
2022/03/24 00:41:35;;;;;;;6.55;3.80;;;25.90;29.40;;;;;;5078711;28;20067;-68
2022/03/24 00:44:02;;;;;;;5.40;4.28;;;26.00;29.40;;;;;;5077299;28;20040;-67
2022/03/24 00:46:31;;;;;;;4.05;2.97;;;26.10;29.40;;;;;;5077563;28;20040;-66
2022/03/24 00:49:02;;;;;;;5.70;3.25;;;26.10;29.30;;;;;;5076160;28;20066;-67
2022/03/24 00:51:29;;;;;;;4.90;3.25;;;26.20;29.30;;;;;;5079650;28;20668;-68
2022/03/24 00:53:56;;;;;;;3.15;2.42;;;26.20;29.20;;;;;;5077933;28;20032;-67
2022/03/24 00:56:24;;;;;;;5.35;3.05;;;26.30;29.20;;;;;;5079829;28;20056;-63
2022/03/24 00:58:51;;;;;;;4.32;3.15;;;26.30;29.20;;;;;;5074314;28;20044;-55
2022/03/24 01:01:21;;;;;;;6.18;3.47;;;26.40;29.30;;;;;;5083708;28;20071;-65
2022/03/24 01:03:49;;;;;;;4.85;3.58;;;26.40;29.40;;;;;;5077029;28;20059;-67
2022/03/24 01:06:18;;;;;;;6.70;3.55;;;26.50;29.30;;;;;;5085288;28;20420;-69
2022/03/24 01:08:46;;;;;;;3.47;2.90;;;26.50;29.30;;;;;;5083135;28;20040;-67
2022/03/24 01:11:14;;;;;;;4.53;3.42;;;26.60;29.30;;;;;;5080711;28;20359;-68
2022/03/24 01:13:43;;;;;;;3.25;2.95;;;26.60;29.20;;;;;;5083189;28;20039;-69
2022/03/24 01:16:10;;;;;;;6.10;3.20;;;26.60;29.20;;;;;;5078885;28;20041;-68
2022/03/24 01:18:39;;;;;;;4.57;3.38;;;26.70;29.20;;;;;;5082813;28;20599;-68
2022/03/24 01:21:07;;;;;;;9.98;4.50;;;26.70;29.10;;;;;;5086037;28;20127;-67
2022/03/24 01:23:36;;;;;;;4.28;3.10;;;26.80;29.10;;;;;;5079050;28;20427;-68
2022/03/24 01:26:05;;;;;;;4.60;2.83;;;26.80;29.10;;;;;;5080965;28;20504;-68
2022/03/24 01:28:33;;;;;;;6.95;2.75;;;26.80;29.10;;;;;;5069149;28;20035;-68
2022/03/24 01:31:00;;;;;;;6.07;3.30;;;26.80;29.10;;;;;;5080979;28;20093;-69
2022/03/24 01:33:28;;;;;;;4.25;2.95;;;26.90;29.10;;;;;;5081669;28;20943;-67
2022/03/24 01:35:55;;;;;;;6.43;3.03;;;26.90;29.10;;;;;;5079186;28;20086;-68
2022/03/24 01:38:23;;;;;;;3.10;2.90;;;26.90;29.10;;;;;;5072338;28;20120;-68
2022/03/24 01:40:53;;;;;;;4.25;3.08;;;26.90;29.00;;;;;;5073394;28;20066;-68
2022/03/24 01:43:24;;;;;;;4.38;2.78;;;27.00;29.00;;;;;;5075644;28;20036;-67
2022/03/24 01:45:54;;;;;;;7.07;4.35;;;27.00;29.00;;;;;;5075170;28;20120;-68
2022/03/24 01:48:22;;;;;;;2.75;2.50;;;27.00;29.00;;;;;;5076872;28;20527;-67
2022/03/24 01:50:52;;;;;;;5.15;3.08;;;27.00;29.00;;;;;;5076066;28;20599;-69
2022/03/24 01:53:20;;;;;;;6.18;3.00;;;27.00;28.90;;;;;;5071927;28;20138;-69
2022/03/24 01:55:50;;;;;;;2.97;2.88;;;27.00;28.90;;;;;;5074242;28;20036;-69
2022/03/24 01:58:21;;;;;;;5.82;3.00;;;27.10;29.00;;;;;;5070977;28;20046;-69
2022/03/24 02:00:49;;;;;;;3.67;3.13;;;27.10;28.90;;;;;;5068654;28;20044;-68
2022/03/24 02:03:16;;;;;;;7.40;3.20;;;27.10;28.90;;;;;;5082911;28;20051;-68
2022/03/24 02:05:44;;;;;;;6.78;3.40;;;27.10;28.90;;;;;;5078932;28;20052;-68
2022/03/24 02:08:13;;;;;;;3.25;2.65;;;27.10;28.90;;;;;;5074407;28;20052;-68
2022/03/24 02:10:42;;;;;;;2.85;2.45;;;27.10;28.90;;;;;;5072651;28;20043;-67
2022/03/24 02:13:09;;;;;;;5.40;3.20;;;27.10;29.00;;;;;;5079803;28;20043;-67
2022/03/24 02:15:38;;;;;;;6.32;3.28;;;27.10;29.00;;;;;;5068798;28;20795;-68
2022/03/24 02:18:12;;;;;;;3.42;3.05;;;27.10;29.00;;;;;;5079589;28;20051;-67
2022/03/24 02:20:40;;;;;;;3.00;2.70;;;27.10;29.00;;;;;;5077989;28;20892;-68
2022/03/24 02:23:09;;;;;;;3.67;3.05;;;27.10;29.00;;;;;;5074071;28;20098;-67
2022/03/24 02:25:38;;;;;;;3.88;2.53;;;27.10;29.00;;;;;;5076443;28;20052;-67
2022/03/24 02:28:05;;;;;;;3.40;3.17;;;27.10;29.00;;;;;;5072930;28;20471;-63
2022/03/24 02:30:32;;;;;;;6.65;2.88;;;27.10;29.10;;;;;;5077010;28;20040;-63
2022/03/24 02:33:00;;;;;;;3.63;3.15;;;27.10;29.20;;;;;;5075218;28;20519;-63
2022/03/24 02:35:27;;;;;;;5.18;2.85;;;27.20;29.30;;;;;;5077622;28;20047;-63
2022/03/24 02:37:54;;;;;;;3.75;3.38;;;27.10;29.30;;;;;;5077056;28;20590;-63
2022/03/24 02:40:22;;;;;;;7.10;3.10;;;27.20;29.30;;;;;;5076629;28;20040;-63
2022/03/24 02:42:50;;;;;;;2.67;2.47;;;27.20;29.30;;;;;;5075352;28;20062;-63
2022/03/24 02:45:18;;;;;;;5.32;2.85;;;27.20;29.80;;;;;;5076041;28;20055;-63
2022/03/24 02:47:46;;;;;;;3.78;3.03;;;27.10;29.30;;;;;;5081527;28;20036;-63
2022/03/24 02:50:14;;;;;;;2.97;2.78;;;27.20;29.30;;;;;;5073757;28;20511;-63
2022/03/24 02:52:41;;;;;;;3.72;3.42;;;27.10;29.30;;;;;;5073300;28;20496;-63
2022/03/24 02:55:09;;;;;;;5.50;2.58;;;27.10;29.30;;;;;;5074361;28;20052;-61
2022/03/24 02:57:37;;;;;;;6.43;3.30;;;27.10;29.30;;;;;;5074045;28;20044;-63
2022/03/24 03:00:06;;;;;;;3.83;3.47;;;27.10;29.30;;;;;;5080935;28;20047;-63
2022/03/24 03:02:33;;;;;;;4.60;2.53;;;27.10;29.30;;;;;;5077362;28;20094;-62
2022/03/24 03:05:01;;;;;;;3.15;2.88;;;27.00;29.30;;;;;;5073859;28;20063;-63
2022/03/24 03:07:28;;;;;;;3.28;2.63;;;27.10;29.40;;;;;;5068791;28;20121;-64
2022/03/24 03:09:56;;;;;;;4.47;2.92;;;27.10;29.40;;;;;;5069127;28;20075;-63
2022/03/24 03:12:26;;;;;;;3.03;2.83;;;27.00;29.30;;;;;;5083334;28;20047;-64
2022/03/24 03:14:56;;;;;;;3.85;3.13;;;27.00;29.30;;;;;;5073360;28;20132;-64
2022/03/24 03:17:23;;;;;;;3.63;3.30;;;27.00;29.30;;;;;;5071195;28;20051;-64
2022/03/24 03:19:50;;;;;;;5.28;3.88;;;27.00;29.30;;;;;;5073902;28;20048;-64
2022/03/24 03:22:18;;;;;;;9.10;2.63;;;27.00;29.30;;;;;;5072520;28;20108;-64
2022/03/24 03:24:46;;;;;;;2.88;2.67;;;27.00;29.30;;;;;;5070142;28;20139;-64
2022/03/24 03:27:14;;;;;;;3.95;2.67;;;27.00;29.30;;;;;;5076220;28;20110;-64
2022/03/24 03:29:41;;;;;;;4.03;2.55;;;27.00;29.40;;;;;;5074111;28;20039;-63
2022/03/24 03:32:10;;;;;;;3.42;3.22;;;27.00;29.40;;;;;;5072613;28;20072;-64
2022/03/24 03:34:38;;;;;;;3.58;2.58;;;27.00;29.30;;;;;;5069831;28;20071;-63
2022/03/24 03:37:06;;;;;;;3.28;2.97;;;26.90;29.30;;;;;;5074093;28;20055;-64
2022/03/24 03:39:34;;;;;;;3.35;3.05;;;26.90;29.30;;;;;;5072144;28;20140;-64
2022/03/24 03:42:03;;;;;;;3.28;3.00;;;26.90;29.30;;;;;;5079480;28;20044;-64
2022/03/24 03:44:30;;;;;;;3.17;2.88;;;26.90;29.30;;;;;;5076789;28;20048;-62
2022/03/24 03:46:57;;;;;;;3.10;2.90;;;26.90;29.30;;;;;;5071779;28;20043;-62
2022/03/24 03:49:26;;;;;;;3.80;2.65;;;26.90;29.30;;;;;;5073312;28;20110;-62
2022/03/24 03:51:54;;;;;;;6.10;3.08;;;26.90;29.30;;;;;;5069914;28;20072;-61
2022/03/24 03:54:21;;;;;;;2.55;2.35;;;26.90;29.30;;;;;;5080861;28;20064;-61
2022/03/24 03:56:48;;;;;;;5.30;3.35;;;26.90;29.30;;;;;;5070882;28;20189;-61
2022/03/24 03:59:16;;;;;;;2.88;2.55;;;26.90;29.30;;;;;;5067172;28;20063;-63
2022/03/24 04:01:43;;;;;;;3.08;2.88;;;26.80;29.30;;;;;;5074986;28;20126;-63
2022/03/24 04:04:12;;;;;;;3.15;2.95;;;26.80;29.30;;;;;;5079740;28;20056;-62
2022/03/24 04:06:41;;;;;;;3.38;3.00;;;26.80;29.30;;;;;;5070681;28;20675;-62
2022/03/24 04:09:09;;;;;;;2.80;2.53;;;26.80;29.40;;;;;;5073852;28;20498;-62
2022/03/24 04:11:36;;;;;;;2.97;2.67;;;26.80;29.40;;;;;;5071744;28;20041;-61
2022/03/24 04:14:04;;;;;;;3.17;2.88;;;26.80;29.40;;;;;;5072974;28;20114;-61
2022/03/24 04:16:32;;;;;;;3.47;2.70;;;26.80;29.40;;;;;;5067805;28;20037;-61
2022/03/24 04:18:59;;;;;;;2.97;2.78;;;26.80;29.40;;;;;;5075860;28;20043;-61
2022/03/24 04:21:26;;;;;;;2.83;2.63;;;26.80;29.40;;;;;;5068120;28;20147;-62
2022/03/24 04:23:55;;;;;;;3.13;2.92;;;26.80;29.40;;;;;;5069265;28;20131;-61
2022/03/24 04:26:22;;;;;;;5.35;3.17;;;26.80;29.50;;;;;;5076668;28;20996;-63
2022/03/24 04:28:49;;;;;;;3.38;2.72;;;26.70;29.40;;;;;;5077697;28;20040;-61
2022/03/24 04:31:17;;;;;;;4.47;2.78;;;26.80;29.50;;;;;;5065782;28;20419;-62
2022/03/24 04:33:44;;;;;;;5.53;3.15;;;26.70;29.50;;;;;;5069758;28;20087;-61
2022/03/24 04:36:11;;;;;;;4.78;2.83;;;26.70;29.50;;;;;;5081193;28;20748;-62
2022/03/24 04:38:39;;;;;;;3.58;3.00;;;26.70;29.50;;;;;;5068326;28;20140;-60
2022/03/24 04:41:08;;;;;;;3.28;3.05;;;26.70;29.50;;;;;;5073892;28;20044;-61
2022/03/24 04:43:37;;;;;;;3.05;2.85;;;26.70;29.60;;;;;;5077773;28;20105;-61
2022/03/24 04:46:05;;;;;;;2.75;2.55;;;26.70;29.50;;;;;;5073809;28;20055;-61
2022/03/24 04:48:35;;;;;;;2.95;2.75;;;26.70;29.60;;;;;;5067146;28;20036;-60
2022/03/24 04:51:05;;;;;;;3.03;2.83;;;26.70;29.60;;;;;;5078283;28;20048;-60
2022/03/24 04:53:33;;;;;;;2.78;2.63;;;26.70;29.60;;;;;;5082335;28;20131;-61
2022/03/24 04:56:00;;;;;;;2.53;2.30;;;26.70;29.60;;;;;;5074145;28;20076;-61
2022/03/24 04:58:29;;;;;;;4.03;2.70;;;26.70;29.60;;;;;;5068767;28;20090;-60
2022/03/24 05:00:57;;;;;;;3.00;2.60;;;26.70;29.70;;;;;;5071314;28;20040;-61
2022/03/24 05:03:24;;;;;;;2.95;2.75;;;26.70;29.70;;;;;;5066338;28;20055;-63
2022/03/24 05:05:52;;;;;;;3.03;2.78;;;26.70;29.70;;;;;;5075974;28;20056;-63
2022/03/24 05:08:19;;;;;;;3.85;2.65;;;26.70;29.80;;;;;;5073760;28;20049;-64
2022/03/24 05:10:46;;;;;;;4.15;3.75;;;26.60;29.80;;;;;;5074519;28;20045;-64
2022/03/24 05:13:13;;;;;;;3.42;2.38;;;26.60;29.80;;;;;;5075187;28;20040;-64
2022/03/24 05:15:42;;;;;;;4.57;2.72;;;26.60;29.80;;;;;;5080224;28;20076;-64
2022/03/24 05:18:09;;;;;;;2.97;2.78;;;26.60;29.80;;;;;;5073408;28;20116;-65
2022/03/24 05:20:36;;;;;;;3.85;2.80;;;26.70;29.90;;;;;;5065780;28;20094;-62
2022/03/24 05:23:03;;;;;;;3.95;3.63;;;26.60;29.90;;;;;;5068253;28;20147;-62
2022/03/24 05:25:31;;;;;;;3.00;2.80;;;26.60;29.90;;;;;;5072120;28;20054;-64
2022/03/24 05:27:58;;;;;;;3.30;2.40;;;26.60;29.90;;;;;;5071591;28;20068;-63
2022/03/24 05:30:25;;;;;;;3.03;2.72;;;26.60;29.90;;;;;;5070669;28;20157;-63
2022/03/24 05:32:54;;;;;;;2.88;2.67;;;26.60;30.40;;;;;;5075488;28;20049;-62
2022/03/24 05:35:22;;;;;;;2.17;2.08;;;26.60;29.90;;;;;;5070694;28;20040;-61
2022/03/24 05:37:49;;;;;;;3.03;2.72;;;26.60;29.90;;;;;;5070038;28;20032;-61
2022/03/24 05:40:17;;;;;;;4.97;2.78;;;26.60;29.90;;;;;;5080032;28;20056;-61
2022/03/24 05:42:44;;;;;;;2.78;2.58;;;26.60;29.90;;;;;;5073661;28;20044;-61
2022/03/24 05:45:11;;;;;;;2.90;2.70;;;26.50;29.90;;;;;;5086625;28;20048;-61
2022/03/24 05:47:39;;;;;;;3.15;2.85;;;26.50;29.80;;;;;;5075579;28;20446;-63
2022/03/24 05:50:12;;;;;;;5.63;2.72;;;26.50;29.80;;;;;;5074834;28;20060;-63
2022/03/24 05:52:51;;;;;;;3.22;2.65;;;26.50;29.80;;;;;;5076831;28;20082;-63
2022/03/24 05:55:19;;;;;;;4.68;2.40;;;26.50;29.80;;;;;;5079516;28;20567;-63
2022/03/24 05:57:46;;;;;;;3.53;2.50;;;26.50;29.80;;;;;;5071600;28;20036;-63
2022/03/24 06:00:14;;;;;;;3.42;3.13;;;26.50;29.90;;;;;;5079050;28;20065;-62
2022/03/24 06:02:43;;;;;;;2.85;2.65;;;26.50;29.90;;;;;;5082331;28;20127;-62
2022/03/24 06:05:12;;;;;;;2.33;2.17;;;26.50;29.90;;;;;;5081465;28;20049;-62
2022/03/24 06:07:39;;;;;;;3.20;2.78;;;26.50;29.90;;;;;;5075410;28;20047;-63
2022/03/24 06:10:08;;;;;;;2.90;2.70;;;26.50;29.90;;;;;;5073139;28;20041;-63
2022/03/24 06:12:37;;;;;;;2.45;2.22;;;26.50;29.90;;;;;;5076174;28;20495;-64
2022/03/24 06:15:05;;;;;;;4.70;2.38;;;26.50;29.90;;;;;;5083372;28;20040;-64
2022/03/24 06:17:33;;;;;;;2.35;2.15;;;26.50;29.90;;;;;;5078610;28;20045;-64
2022/03/24 06:20:01;;;;;;;2.80;2.33;;;26.50;29.90;;;;;;5073654;28;20055;-64
2022/03/24 06:22:31;;;;;;;3.50;2.72;;;26.50;30.00;;;;;;5081185;28;20292;-63
2022/03/24 06:24:58;;;;;;;4.30;2.92;;;26.50;30.00;;;;;;5070714;28;20046;-64
2022/03/24 06:27:27;;;;;;;3.47;3.10;;;26.50;30.00;;;;;;5076015;28;20040;-65
2022/03/24 06:29:54;;;;;;;2.03;1.92;;;26.50;30.00;;;;;;5073965;28;20048;-63
2022/03/24 06:32:22;;;;;;;3.22;2.72;;;26.50;30.00;;;;;;5075163;28;20048;-62
2022/03/24 06:34:50;;;;;;;2.50;2.30;;;26.50;30.10;;;;;;5075562;28;20048;-64
2022/03/24 06:37:19;;;;;;;3.28;2.97;;;26.50;30.10;;;;;;5076521;28;20571;-63
2022/03/24 06:39:47;;;;;;;3.15;2.90;;;26.50;30.20;;;;;;5074832;28;20051;-62
2022/03/24 06:42:14;;;;;;;2.35;2.25;;;26.50;30.20;;;;;;5075196;28;20040;-63
2022/03/24 06:44:42;;;;;;;3.13;2.63;;;26.50;30.20;;;;;;5081032;28;20143;-62
2022/03/24 06:47:10;;;;;;;4.63;2.58;;;26.50;30.20;;;;;;5082865;28;20028;-62
2022/03/24 06:49:37;;;;;;;3.05;2.88;;;26.50;30.30;;;;;;5070124;28;20417;-62
2022/03/24 06:52:05;;;;;;;5.18;3.08;;;26.50;30.30;;;;;;5079722;28;20039;-63
2022/03/24 06:54:32;;;;;;;3.60;3.10;;;26.50;30.30;;;;;;5083813;28;20051;-63
2022/03/24 06:57:00;;;;;;;3.50;3.22;;;26.50;30.30;;;;;;5077150;28;20527;-63
2022/03/24 06:59:27;;;;;;;4.22;2.88;;;26.50;30.30;;;;;;5075345;28;20433;-63
2022/03/24 07:01:55;;;;;;;3.08;2.70;;;26.50;30.30;;;;;;5073096;28;20036;-62
2022/03/24 07:04:22;;;;;;;3.17;2.88;;;26.50;30.40;;;;;;5072678;28;20102;-64
2022/03/24 07:06:49;;;;;;;4.82;2.88;;;26.50;30.30;;;;;;5072507;28;20040;-64
2022/03/24 07:09:16;;;;;;;3.03;2.83;;;26.60;30.50;;;;;;5076198;28;20080;-62
2022/03/24 07:11:44;;;;;;;2.60;2.22;;;26.60;30.50;;;;;;5073030;28;20037;-62
2022/03/24 07:14:12;;;;;;;4.32;3.92;;;26.60;30.50;;;;;;5072166;28;20048;-62
2022/03/24 07:16:40;;;;;;;3.25;2.63;;;26.60;30.50;;;;;;5072860;28;20040;-61
2022/03/24 07:19:09;;;;;;;5.72;3.45;;;26.60;30.40;;;;;;5077544;28;20040;-63
2022/03/24 07:21:37;;;;;;;3.55;3.00;;;26.60;30.50;;;;;;5066725;28;20986;-61
2022/03/24 07:24:04;;;;;;;2.88;2.65;;;26.60;30.50;;;;;;5075441;28;20102;-61
2022/03/24 07:26:32;;;;;;;6.80;3.72;;;26.70;30.50;;;;;;5081450;28;20047;-62
2022/03/24 07:28:59;;;;;;;3.95;3.53;;;26.60;30.40;;;;;;5074835;28;20076;-62
2022/03/24 07:31:29;;;;;;;3.50;3.17;;;26.60;30.40;;;;;;5078411;28;20035;-62
2022/03/24 07:33:57;;;;;;;4.22;3.75;;;26.70;30.50;;;;;;5069745;28;20135;-63
2022/03/24 07:36:25;;;;;;;5.65;3.33;;;26.70;30.50;;;;;;5082625;28;20067;-63
2022/03/24 07:38:54;;;;;;;3.80;2.85;;;26.70;30.50;;;;;;5081014;28;20040;-63
2022/03/24 07:41:22;;;;;;;4.05;3.05;;;26.70;30.50;;;;;;5076507;28;20036;-64
2022/03/24 07:43:49;;;;;;;5.40;4.93;;;26.70;30.50;;;;;;5076624;28;20082;-62
2022/03/24 07:46:16;;;;;;;9.23;4.35;;;26.70;30.60;;;;;;5066357;28;20055;-63
2022/03/24 07:48:46;;;;;;;5.63;4.07;;;26.70;30.50;;;;;;5074908;28;20475;-62
2022/03/24 07:51:16;;;;;;;6.07;3.35;;;26.80;30.50;;;;;;5072024;28;20049;-63
2022/03/24 07:53:58;;;;;;;5.75;3.63;;;26.80;30.50;;;;;;5070736;28;20126;-63
2022/03/24 07:56:26;;;;;;;3.90;3.35;;;26.80;30.50;;;;;;5068073;28;20064;-63
2022/03/24 07:58:54;;;;;;;4.20;3.72;;;26.80;30.50;;;;;;5075214;28;20043;-63
2022/03/24 08:01:29;;;;;;;4.22;3.40;;;26.80;30.50;;;;;;5073907;28;20040;-64
2022/03/24 08:03:59;;;;;;;5.65;3.67;;;26.80;30.40;;;;;;5064637;28;20126;-64
2022/03/24 08:06:28;;;;;;;3.92;3.63;;;26.80;30.40;;;;;;5071250;28;20059;-64
2022/03/24 08:08:55;;;;;;;4.28;3.88;;;26.90;30.40;;;;;;5076022;28;20044;-63
2022/03/24 08:11:25;;;;;;;7.03;3.55;;;26.90;30.40;;;;;;5069618;28;20151;-61
2022/03/24 08:13:54;;;;;;;5.07;3.58;;;26.90;30.30;;;;;;5075058;28;20048;-62
2022/03/24 08:16:21;;;;;;;3.80;3.05;;;26.90;30.30;;;;;;5079870;28;20040;-63
2022/03/24 08:18:49;;;;;;;3.05;2.85;;;26.90;30.30;;;;;;5069862;28;20040;-63
2022/03/24 08:21:18;;;;;;;6.70;3.50;;;26.90;30.20;;;;;;5072446;28;20106;-62
2022/03/24 08:23:45;;;;;;;4.35;3.53;;;26.90;30.10;;;;;;5073074;28;20515;-61
2022/03/24 08:26:13;;;;;;;4.82;3.72;;;27.00;30.20;;;;;;5075507;28;20419;-62
2022/03/24 08:28:41;;;;;;;5.90;4.43;;;26.90;30.10;;;;;;5079637;28;20082;-63
2022/03/24 08:31:09;;;;;;;8.32;4.35;;;27.00;30.20;;;;;;5071857;28;20043;-62
2022/03/24 08:33:36;;;;;;;4.68;3.97;;;27.00;30.20;;;;;;5076269;28;20075;-64
2022/03/24 08:36:04;;;;;;;8.77;4.85;;;27.00;30.20;;;;;;5076696;28;20541;-64
2022/03/24 08:38:32;;;;;;;4.13;3.83;;;27.00;30.20;;;;;;5081324;28;20040;-63
2022/03/24 08:41:00;;;;;;;7.55;3.92;;;27.00;30.20;;;;;;5070333;28;20036;-63
2022/03/24 08:43:27;;;;;;;8.13;5.05;;;27.00;30.20;;;;;;5073423;28;20674;-63
2022/03/24 08:45:55;;;;;;;4.03;3.05;;;27.00;30.20;;;;;;5083203;28;20661;-62
2022/03/24 08:48:22;;;;;;;3.97;3.65;;;27.00;30.20;;;;;;5085429;28;20510;-64
2022/03/24 08:50:49;;;;;;;4.32;3.95;;;27.10;30.30;;;;;;5071574;28;20142;-64
2022/03/24 08:53:17;;;;;;;7.18;4.55;;;27.10;30.20;;;;;;5069067;28;20528;-64
2022/03/24 08:55:46;;;;;;;9.82;4.07;;;27.10;30.20;;;;;;5069326;28;20040;-66
2022/03/24 08:58:18;;;;;;;4.15;3.85;;;27.10;30.20;;;;;;5069497;28;20044;-65
2022/03/24 09:00:46;;;;;;;5.50;4.38;;;27.10;30.20;;;;;;5071835;28;20043;-65
2022/03/24 09:03:13;;;;;;;5.28;4.47;;;27.10;30.20;;;;;;5081696;28;20032;-64
2022/03/24 09:05:41;;;;;;;9.15;4.70;;;27.10;30.20;;;;;;5078172;28;20147;-62
2022/03/24 09:08:08;;;;;;;9.25;4.18;;;27.10;30.30;;;;;;5080267;28;20044;-61
2022/03/24 09:10:36;;;;;;;4.78;4.28;;;27.20;30.40;;;;;;5076785;28;20070;-62
2022/03/24 09:13:04;;;;;;;6.35;3.88;;;27.20;30.50;;;;;;5077935;28;20044;-62
2022/03/24 09:15:32;;;;;;;6.45;3.65;;;27.20;30.50;;;;;;5069849;28;20040;-64
2022/03/24 09:17:59;;;;;;;4.65;4.20;;;27.20;30.60;;;;;;5085026;28;20554;-61
2022/03/24 09:20:26;;;;;;;10.48;3.60;;;27.20;30.70;;;;;;5076282;28;20043;-64
2022/03/24 09:22:53;;;;;;;5.88;3.67;;;27.30;30.90;;;;;;5077532;28;20151;-61
2022/03/24 09:25:21;;;;;;;4.00;3.65;;;27.30;31.00;;;;;;5081194;28;20096;-59
2022/03/24 09:27:49;;;;;;;5.78;3.72;;;27.30;31.00;;;;;;5071178;28;20117;-68
2022/03/24 09:30:18;;;;;;;4.45;3.40;;;27.40;31.00;;;;;;5082817;28;20040;-69
2022/03/24 09:32:47;;;;;;;4.80;3.92;;;27.40;30.90;;;;;;5078953;28;20575;-60
2022/03/24 09:35:15;;;;;;;8.60;3.65;;;27.40;30.70;;;;;;5077160;28;20076;-60
2022/03/24 09:37:42;;;;;;;4.53;3.40;;;27.50;30.70;;;;;;5080804;28;20732;-60
2022/03/24 09:40:11;;;;;;;7.90;4.22;;;27.50;30.60;;;;;;5076532;28;20036;-60
2022/03/24 09:42:39;;;;;;;5.53;3.92;;;27.60;30.60;;;;;;5082649;28;20048;-60
2022/03/24 09:45:09;;;;;;;4.18;3.45;;;27.70;30.50;;;;;;5082388;28;20044;-59
2022/03/24 09:47:40;;;;;;;6.72;3.90;;;27.70;30.30;;;;;;5079107;28;20317;-60
2022/03/24 09:50:09;;;;;;;4.32;3.03;;;27.80;30.20;;;;;;5075078;28;20032;-60
2022/03/24 09:52:36;;;;;;;5.82;3.15;;;27.90;30.20;;;;;;5077371;28;20052;-61
2022/03/24 09:55:04;;;;;;;4.53;4.03;;;27.90;30.00;;;;;;5075833;28;20859;-63
2022/03/24 09:57:33;;;;;;;4.85;3.03;;;28.00;30.00;;;;;;5079129;28;20552;-63
2022/03/24 10:00:00;;;;;;;5.75;3.85;;;28.10;30.00;;;;;;5084906;28;20040;-60
2022/03/24 10:02:29;;;;;;;4.30;3.78;;;28.10;29.90;;;;;;5072965;28;20060;-59
2022/03/24 10:05:01;;;;;;;5.18;3.70;;;28.10;30.00;;;;;;5074966;28;20491;-61
2022/03/24 10:07:30;;;;;;;6.70;2.95;;;28.20;30.00;;;;;;5074938;28;20624;-63
2022/03/24 10:09:59;;;;;;;5.65;3.92;;;28.20;30.00;;;;;;5069837;28;20043;-62
2022/03/24 10:12:28;;;;;;;3.03;2.60;;;28.30;30.00;;;;;;5083045;28;20720;-61
2022/03/24 10:14:58;;;;;;;3.83;3.50;;;28.30;29.90;;;;;;5074203;28;20794;-62
2022/03/24 10:17:26;;;;;;;4.43;3.28;;;28.30;29.90;;;;;;5071140;28;20454;-59
2022/03/24 10:19:58;;;;;;;12.27;5.95;;;28.30;29.90;;;;;;5078140;28;20129;-66
2022/03/24 10:22:27;;;;;;;7.72;3.53;;;28.30;29.90;;;;;;5069941;28;20066;-66
2022/03/24 10:24:55;;;;;;;4.70;3.08;;;28.40;29.90;;;;;;5077588;28;20045;-68
2022/03/24 10:27:25;;;;;;;4.95;3.35;;;28.40;29.90;;;;;;5069776;28;20054;-63
2022/03/24 10:29:54;;;;;;;4.00;3.53;;;28.50;29.90;;;;;;5076511;28;20043;-64
2022/03/24 10:32:26;;;;;;;4.50;3.15;;;28.50;30.00;;;;;;5073902;28;20048;-63
2022/03/24 10:34:59;;;;;;;6.55;3.30;;;28.60;30.00;;;;;;5069184;28;20051;-63
2022/03/24 10:37:27;;;;;;;3.85;2.92;;;28.60;29.90;;;;;;5072274;28;20039;-64
2022/03/24 10:39:59;;;;;;;4.30;2.53;;;28.60;30.00;;;;;;5081627;28;20048;-63
2022/03/24 10:42:29;;;;;;;3.22;2.92;;;28.60;29.90;;;;;;5079016;28;20040;-57
2022/03/24 10:45:11;;;;;;;17.02;6.70;;;28.70;30.10;;;;;;5083688;28;20044;-65
2022/03/24 10:47:41;;;;;;;16.50;8.75;;;28.70;30.10;;;;;;5075091;28;20158;-63
2022/03/24 10:50:32;;;;;;;30.52;12.70;;;28.70;30.30;;;;;;5077251;28;20032;-61
2022/03/24 10:53:02;;;;;;;34.97;14.90;;;28.80;30.30;;;;;;5072026;28;20040;-64
2022/03/24 10:55:50;;;;;;;38.85;16.05;;;28.80;30.30;;;;;;5074868;28;20097;-62
2022/03/24 10:58:22;;;;;;;35.38;15.75;;;28.80;30.30;;;;;;5082339;28;20036;-62
2022/03/24 11:00:52;;;;;;;38.22;15.10;;;28.90;30.30;;;;;;5081131;28;20055;-58
2022/03/24 11:03:21;;;;;;;27.98;13.00;;;28.90;30.30;;;;;;5082060;28;20040;-62
2022/03/24 11:05:50;;;;;;;30.45;14.38;;;28.90;30.30;;;;;;5081918;28;20052;-59
2022/03/24 11:08:19;;;;;;;31.40;15.30;;;28.90;30.20;;;;;;5073611;28;20101;-59
2022/03/24 11:10:48;;;;;;;23.42;13.55;;;29.00;30.20;;;;;;5075109;28;20044;-62
2022/03/24 11:13:25;;;;;;;28.92;12.00;;;29.00;30.30;;;;;;5078464;28;20074;-67
2022/03/24 11:15:53;;;;;;;24.17;11.10;;;29.10;30.40;;;;;;5067812;28;20051;-63
2022/03/24 11:18:24;;;;;;;32.53;13.85;;;29.10;30.40;;;;;;5078593;28;20126;-60
2022/03/24 11:21:00;;;;;;;30.13;11.30;;;29.10;30.00;;;;;;5082201;28;20453;-58
2022/03/24 11:23:39;;;;;;;22.70;10.95;;;29.10;29.80;;;;;;5082279;28;20128;-65
2022/03/24 11:26:08;;;;;;;23.60;10.98;;;29.10;29.80;;;;;;5078970;28;20647;-65
2022/03/24 11:28:37;;;;;;;27.05;10.10;;;28.90;29.90;;;;;;5082172;28;20044;-64
2022/03/24 11:31:07;;;;;;;16.70;7.78;;;28.80;30.00;;;;;;5072752;28;20041;-61
2022/03/24 11:33:43;;;;;;;23.52;7.75;;;28.80;30.20;;;;;;5080842;28;20512;-60
2022/03/24 11:36:13;;;;;;;31.05;9.10;;;28.70;30.50;;;;;;5070787;28;20042;-62
2022/03/24 11:38:41;;;;;;;30.02;8.18;;;28.60;30.90;;;;;;5075355;28;20044;-67
2022/03/24 11:41:16;;;;;;;28.27;8.63;;;28.60;31.30;;;;;;5075738;28;20047;-59
2022/03/24 11:43:52;;;;;;;31.63;8.55;;;28.50;31.50;;;;;;5077680;28;20048;-63
2022/03/24 11:46:31;;;;;;;36.80;8.23;;;28.40;31.90;;;;;;5074033;28;20040;-63
2022/03/24 11:49:18;;;;;;;35.40;7.97;;;28.40;32.40;;;;;;5067036;28;20044;-64
2022/03/24 11:51:49;;;;;;;22.35;6.50;;;28.40;32.50;;;;;;5081986;28;20051;-64
2022/03/24 11:54:27;;;;;;;19.50;7.75;;;28.30;32.60;;;;;;5075283;28;20094;-64
2022/03/24 11:57:25;;;;;;;14.90;6.07;;;28.30;32.70;;;;;;5084732;28;20570;-64
2022/03/24 12:00:27;;;;;;;21.80;5.63;;;28.30;32.50;;;;;;5058462;28;20048;-64
2022/03/24 12:03:00;;;;;;;13.15;5.20;;;28.30;32.50;;;;;;5063210;28;20055;-64
2022/03/24 12:05:51;;;;;;;11.10;5.25;;;28.30;32.50;;;;;;5074017;28;20501;-64
2022/03/24 12:08:28;;;;;;;15.65;5.32;;;28.20;32.30;;;;;;5078288;28;20132;-64
2022/03/24 12:10:58;;;;;;;14.48;4.78;;;28.20;32.30;;;;;;5073044;28;20063;-62
2022/03/24 12:13:25;;;;;;;8.98;3.90;;;28.20;32.20;;;;;;5074302;28;20505;-65
2022/03/24 12:16:11;;;;;;;11.85;4.20;;;28.20;32.20;;;;;;5075739;28;20131;-63
2022/03/24 12:18:44;;;;;;;19.02;4.60;;;28.20;32.10;;;;;;5069653;28;20056;-64
2022/03/24 12:21:21;;;;;;;8.07;3.53;;;28.20;32.10;;;;;;5071618;28;20143;-61
2022/03/24 12:24:08;;;;;;;7.93;3.95;;;28.10;32.00;;;;;;5072634;28;20045;-61
2022/03/24 12:26:41;;;;;;;11.00;3.40;;;28.20;32.00;;;;;;5076094;28;20907;-63
2022/03/24 12:29:20;;;;;;;11.82;3.78;;;28.10;31.90;;;;;;5073815;28;20059;-63
2022/03/24 12:31:58;;;;;;;8.27;3.53;;;28.10;31.90;;;;;;5072574;28;20499;-63
2022/03/24 12:34:44;;;;;;;4.28;3.15;;;28.10;31.90;;;;;;5073183;28;20127;-64
2022/03/24 12:37:38;;;;;;;6.78;3.35;;;28.10;31.90;;;;;;5065806;28;20032;-63
2022/03/24 12:40:13;;;;;;;10.43;3.55;;;28.10;31.80;;;;;;5072719;28;20037;-64
2022/03/24 12:42:41;;;;;;;7.35;3.63;;;28.00;31.70;;;;;;5072579;28;20044;-63
2022/03/24 12:45:10;;;;;;;10.23;4.95;;;28.10;31.80;;;;;;5084879;28;20139;-61
2022/03/24 12:47:39;;;;;;;3.78;2.67;;;28.00;31.70;;;;;;5068446;28;20045;-63
2022/03/24 12:50:48;;;;;;;8.20;2.97;;;28.00;31.70;;;;;;5077316;28;20063;-64
2022/03/24 12:53:15;;;;;;;4.63;2.80;;;28.00;31.60;;;;;;5071416;28;20131;-64
2022/03/24 12:55:43;;;;;;;6.57;3.33;;;28.00;31.60;;;;;;5077211;28;20063;-64
2022/03/24 12:58:12;;;;;;;6.07;2.70;;;28.00;31.60;;;;;;5075424;28;20048;-63